Terminal Aerodrome Forecast
Issued by NWS

Home | Current Version | Previous Version | Text Only | Print | Product List | Glossary On
Versions: 1 2 3 4 5 6 7 8 9 10 11 12 13 14 15 16 17 18 19 20 21 22 23 24 25 26 27 28 29 30 31 32 33 34 35 36 37 38 39 40
000
FTUS45 KGJT 012351 AAA
TAFRIL
TAF AMD
KRIL 012351Z 0200/0224 30010KT P6SM -RA BKN045 OVC080
      TEMPO 0200/0202 2SM +RA BKN025
     FM020200 31008KT P6SM VCSH SCT050 BKN080
     FM020800 28007KT P6SM VCFG SCT080
     FM021300 VRB03KT P6SM VCFG FEW010
     FM021800 27010KT P6SM SCT080=

USA.gov is the U.S. government's official web portal to all federal, state and local government web resources and services.